createdAt,value
2017-05-20T00:00:58.460Z,0
2017-05-20T00:02:19.974Z,0
2017-05-20T00:03:41.820Z,0
2017-05-20T00:05:04.540Z,0
2017-05-20T00:06:26.441Z,0
2017-05-20T00:07:48.341Z,0
2017-05-20T00:09:10.180Z,0
2017-05-20T00:10:32.324Z,0
2017-05-20T00:11:54.186Z,0
2017-05-20T00:13:15.811Z,0
2017-05-20T00:14:38.342Z,0
2017-05-20T00:16:01.259Z,0
2017-05-20T00:17:22.836Z,0
2017-05-20T00:18:44.717Z,0
2017-05-20T00:20:06.560Z,0
2017-05-20T00:21:29.005Z,0
2017-05-20T00:22:51.462Z,0
2017-05-20T00:24:13.612Z,0
2017-05-20T00:25:35.491Z,0
2017-05-20T00:26:57.944Z,0
2017-05-20T00:28:19.777Z,0
2017-05-20T00:29:41.962Z,0
2017-05-20T00:31:04.430Z,0
2017-05-20T00:32:26.914Z,0
2017-05-20T00:33:48.857Z,0
2017-05-20T00:35:10.364Z,0
2017-05-20T00:36:32.187Z,0
2017-05-20T00:37:54.749Z,0
2017-05-20T00:39:16.582Z,0
2017-05-20T00:40:38.730Z,0
2017-05-20T00:42:00.259Z,0
2017-05-20T00:43:22.758Z,0
2017-05-20T00:44:44.580Z,0
2017-05-20T00:46:06.090Z,0
2017-05-20T00:47:28.270Z,0
2017-05-20T00:48:50.409Z,0
2017-05-20T00:50:12.263Z,0
2017-05-20T00:51:34.130Z,0
2017-05-20T00:52:55.669Z,0
2017-05-20T00:54:17.612Z,0
2017-05-20T00:55:39.446Z,0
2017-05-20T00:57:01.284Z,0
2017-05-20T00:58:22.794Z,0
2017-05-20T00:59:45.010Z,0
2017-05-20T01:01:06.528Z,0
2017-05-20T01:02:28.687Z,0
2017-05-20T01:03:50.540Z,0
2017-05-20T01:05:13.140Z,0
2017-05-20T01:06:34.730Z,0
2017-05-20T01:07:56.629Z,0
2017-05-20T01:09:17.933Z,0
2017-05-20T01:10:39.870Z,0
2017-05-20T01:12:02.105Z,0
2017-05-20T01:13:24.580Z,0
2017-05-20T01:14:46.467Z,0
2017-05-20T01:16:08.970Z,0
2017-05-20T01:17:31.121Z,0
2017-05-20T01:18:52.968Z,0
2017-05-20T01:20:15.120Z,0
2017-05-20T01:21:37.288Z,0
2017-05-20T01:22:59.109Z,0
2017-05-20T01:24:20.680Z,0
2017-05-20T01:25:42.527Z,0
2017-05-20T01:27:04.682Z,0
2017-05-20T01:28:27.161Z,0
2017-05-20T01:29:49.019Z,0
2017-05-20T01:31:10.638Z,0
2017-05-20T01:32:32.764Z,0
2017-05-20T01:33:54.595Z,0
2017-05-20T01:35:16.740Z,0
2017-05-20T01:36:38.891Z,0
2017-05-20T01:38:01.101Z,0
2017-05-20T01:39:22.953Z,0
2017-05-20T01:40:44.839Z,0
2017-05-20T01:42:06.087Z,0
2017-05-20T01:43:28.280Z,0
2017-05-20T01:44:50.162Z,0
2017-05-20T01:46:12.322Z,0
2017-05-20T01:47:34.139Z,0
2017-05-20T01:48:56.306Z,0
2017-05-20T01:50:18.203Z,0
2017-05-20T01:51:40.049Z,0
2017-05-20T01:53:02.202Z,0
2017-05-20T01:54:24.052Z,0
2017-05-20T01:55:45.560Z,0
2017-05-20T01:57:07.698Z,0
2017-05-20T01:58:29.567Z,0
2017-05-20T01:59:52.126Z,0
2017-05-20T02:01:14.270Z,0
2017-05-20T02:02:35.843Z,0
2017-05-20T02:03:58.422Z,0
2017-05-20T02:05:20.817Z,0
2017-05-20T02:06:42.950Z,0
2017-05-20T02:08:05.118Z,0
2017-05-20T02:09:26.961Z,0
2017-05-20T02:10:48.790Z,0
2017-05-20T02:12:10.940Z,0
2017-05-20T02:13:33.092Z,0
2017-05-20T02:14:54.929Z,0
2017-05-20T02:16:17.681Z,0
2017-05-20T02:17:39.509Z,0
2017-05-20T02:19:01.039Z,0
2017-05-20T02:20:23.178Z,0
2017-05-20T02:21:45.783Z,0
2017-05-20T02:23:07.667Z,0
2017-05-20T02:24:29.548Z,0
2017-05-20T02:25:51.689Z,0
2017-05-20T02:27:13.548Z,0
2017-05-20T02:28:35.701Z,0
2017-05-20T02:29:57.230Z,0
2017-05-20T02:31:19.048Z,0
2017-05-20T02:32:41.482Z,0
2017-05-20T02:34:03.069Z,0
2017-05-20T02:35:24.700Z,0
2017-05-20T02:36:46.641Z,0
2017-05-20T02:38:08.829Z,0
2017-05-20T02:39:30.347Z,4
2017-05-20T02:40:51.537Z,4
2017-05-20T02:42:13.359Z,4
2017-05-20T02:43:35.450Z,0
2017-05-20T02:44:57.114Z,4
2017-05-20T02:46:19.359Z,4
2017-05-20T02:47:41.301Z,4
2017-05-20T02:49:03.056Z,4
2017-05-20T02:50:24.889Z,4
2017-05-20T02:51:46.380Z,8
2017-05-20T02:53:07.895Z,8
2017-05-20T02:54:30.030Z,8
2017-05-20T02:55:52.205Z,12
2017-05-20T02:57:13.719Z,12
2017-05-20T02:58:35.571Z,16
2017-05-20T02:59:57.117Z,16
2017-05-20T03:01:19.328Z,20
2017-05-20T03:02:41.576Z,24
2017-05-20T03:04:03.720Z,32
2017-05-20T03:05:26.270Z,32
2017-05-20T03:06:48.410Z,36
2017-05-20T03:08:09.970Z,36
2017-05-20T03:09:31.529Z,44
2017-05-20T03:10:53.402Z,44
2017-05-20T03:12:15.618Z,48
2017-05-20T03:13:38.080Z,56
2017-05-20T03:15:00.219Z,68
2017-05-20T03:16:22.511Z,68
2017-05-20T03:17:44.019Z,88
2017-05-20T03:19:05.540Z,96
2017-05-20T03:20:27.677Z,88
2017-05-20T03:21:50.013Z,120
2017-05-20T03:23:12.150Z,136
2017-05-20T03:24:34.344Z,160
2017-05-20T03:25:55.539Z,168
2017-05-20T03:27:17.751Z,184
2017-05-20T03:28:39.619Z,184
2017-05-20T03:30:01.139Z,212
2017-05-20T03:31:23.282Z,252
2017-05-20T03:32:45.109Z,300
2017-05-20T03:34:06.930Z,364
2017-05-20T03:35:28.860Z,380
2017-05-20T03:36:50.690Z,432
2017-05-20T03:38:12.309Z,528
2017-05-20T03:39:33.879Z,596
2017-05-20T03:40:55.387Z,600
2017-05-20T03:42:17.276Z,680
2017-05-20T03:43:40.100Z,624
2017-05-20T03:45:01.620Z,568
2017-05-20T03:46:23.464Z,556
2017-05-20T03:47:45.425Z,680
2017-05-20T03:49:08.153Z,784
2017-05-20T03:50:29.993Z,880
2017-05-20T03:51:52.527Z,1044
2017-05-20T03:53:14.379Z,1100
2017-05-20T03:54:36.511Z,1220
2017-05-20T03:55:58.066Z,1104
2017-05-20T03:57:20.209Z,992
2017-05-20T03:58:42.059Z,932
2017-05-20T04:00:04.190Z,900
2017-05-20T04:01:26.031Z,824
2017-05-20T04:02:47.622Z,748
2017-05-20T04:04:09.541Z,772
2017-05-20T04:05:32.069Z,724
2017-05-20T04:06:54.306Z,704
2017-05-20T04:08:16.244Z,708
2017-05-20T04:09:38.434Z,760
2017-05-20T04:11:00.659Z,680
2017-05-20T04:12:22.178Z,748
2017-05-20T04:13:44.720Z,956
2017-05-20T04:15:06.853Z,1160
2017-05-20T04:16:28.942Z,1408
2017-05-20T04:17:50.775Z,1860
2017-05-20T04:19:12.674Z,2632
2017-05-20T04:20:34.900Z,3204
2017-05-20T04:21:57.160Z,3632
2017-05-20T04:23:18.671Z,3552
2017-05-20T04:24:40.496Z,4040
2017-05-20T04:26:01.996Z,4340
2017-05-20T04:27:24.222Z,4628
2017-05-20T04:28:46.790Z,5072
2017-05-20T04:30:08.940Z,4988
2017-05-20T04:31:30.831Z,5484
2017-05-20T04:32:53.014Z,4956
2017-05-20T04:34:14.219Z,5100
2017-05-20T04:35:36.199Z,5304
2017-05-20T04:36:57.709Z,5368
2017-05-20T04:38:19.526Z,5172
2017-05-20T04:39:41.401Z,4900
2017-05-20T04:41:02.905Z,4236
2017-05-20T04:42:25.359Z,4328
2017-05-20T04:43:48.192Z,4716
2017-05-20T04:45:10.008Z,5352
2017-05-20T04:46:31.208Z,5488
2017-05-20T04:47:53.050Z,6664
2017-05-20T04:49:15.673Z,7644
2017-05-20T04:50:37.929Z,6360
2017-05-20T04:52:00.297Z,5404
2017-05-20T04:53:22.433Z,5596
2017-05-20T04:54:44.392Z,3584
2017-05-20T04:56:06.291Z,4424
2017-05-20T04:57:28.129Z,5168
2017-05-20T04:58:50.386Z,5404
2017-05-20T05:00:12.846Z,3856
2017-05-20T05:01:34.734Z,2992
2017-05-20T05:02:56.545Z,2424
2017-05-20T05:04:18.051Z,2956
2017-05-20T05:05:40.350Z,2896
2017-05-20T05:07:02.637Z,2372
2017-05-20T05:08:24.242Z,2384
2017-05-20T05:09:46.700Z,2968
2017-05-20T05:11:08.928Z,3688
2017-05-20T05:12:31.104Z,3652
2017-05-20T05:13:52.920Z,2188
2017-05-20T05:15:15.081Z,1716
2017-05-20T05:16:37.068Z,1892
2017-05-20T05:17:59.312Z,2556
2017-05-20T05:19:21.260Z,3964
2017-05-20T05:20:43.783Z,4312
2017-05-20T05:22:06.059Z,4440
2017-05-20T05:23:27.564Z,5996
2017-05-20T05:24:49.214Z,7836
2017-05-20T05:26:11.822Z,9604
2017-05-20T05:27:33.744Z,10112
2017-05-20T05:28:56.331Z,8828
2017-05-20T05:30:18.149Z,11008
2017-05-20T05:31:39.669Z,13956
2017-05-20T05:33:02.167Z,16064
2017-05-20T05:34:24.118Z,14164
2017-05-20T05:35:46.271Z,12640
2017-05-20T05:37:08.549Z,8732
2017-05-20T05:38:30.748Z,7592
2017-05-20T05:39:52.584Z,7492
2017-05-20T05:41:14.159Z,6904
2017-05-20T05:42:35.666Z,6740
2017-05-20T05:43:57.557Z,7192
2017-05-20T05:45:20.050Z,6840
2017-05-20T05:46:41.895Z,7284
2017-05-20T05:48:03.748Z,8864
2017-05-20T05:49:26.592Z,8876
2017-05-20T05:50:48.550Z,7440
2017-05-20T05:52:11.070Z,3288
2017-05-20T05:53:32.911Z,3304
2017-05-20T05:54:55.533Z,5524
2017-05-20T05:56:17.051Z,7596
2017-05-20T05:57:39.509Z,6036
2017-05-20T05:59:01.658Z,5320
2017-05-20T06:00:24.166Z,5972
2017-05-20T06:01:46.021Z,5912
2017-05-20T06:03:07.888Z,4992
2017-05-20T06:04:30.359Z,6836
2017-05-20T06:05:52.891Z,9840
2017-05-20T06:07:15.068Z,9972
2017-05-20T06:08:37.233Z,8200
2017-05-20T06:09:59.056Z,12776
2017-05-20T06:11:20.878Z,18464
2017-05-20T06:12:43.129Z,28832
2017-05-20T06:14:05.017Z,23712
2017-05-20T06:15:27.161Z,31424
2017-05-20T06:16:49.337Z,22816
2017-05-20T06:18:10.840Z,31008
2017-05-20T06:19:32.492Z,28288
2017-05-20T06:20:53.784Z,36128
2017-05-20T06:22:15.698Z,34944
2017-05-20T06:23:37.910Z,41664
2017-05-20T06:25:00.500Z,22592
2017-05-20T06:26:22.799Z,14468
2017-05-20T06:27:44.639Z,10596
2017-05-20T06:29:06.601Z,12348
2017-05-20T06:30:28.468Z,13432
2017-05-20T06:31:50.121Z,11096
2017-05-20T06:33:12.404Z,9928
2017-05-20T06:34:34.599Z,28512
2017-05-20T06:35:56.779Z,36736
2017-05-20T06:37:19.269Z,17024
2017-05-20T06:38:41.721Z,13700
2017-05-20T06:40:03.641Z,14164
2017-05-20T06:41:25.798Z,17056
2017-05-20T06:42:47.428Z,17152
2017-05-20T06:44:10.069Z,50720
2017-05-20T06:45:32.638Z,21376
2017-05-20T06:46:54.545Z,22848
2017-05-20T06:48:16.820Z,35744
2017-05-20T06:49:39.657Z,16160
2017-05-20T06:51:02.070Z,16736
2017-05-20T06:52:23.998Z,18880
2017-05-20T06:53:46.176Z,21536
2017-05-20T06:55:08.668Z,33664
2017-05-20T06:56:30.788Z,17184
2017-05-20T06:57:51.998Z,36384
2017-05-20T06:59:14.166Z,20320
2017-05-20T07:00:36.881Z,22048
2017-05-20T07:01:58.738Z,22624
2017-05-20T07:03:20.640Z,17056
2017-05-20T07:04:42.923Z,14504
2017-05-20T07:06:05.392Z,19360
2017-05-20T07:07:27.654Z,31616
2017-05-20T07:08:49.512Z,18016
2017-05-20T07:10:11.999Z,16704
2017-05-20T07:11:34.469Z,14160
2017-05-20T07:12:56.389Z,14220
2017-05-20T07:14:18.249Z,26784
2017-05-20T07:15:40.219Z,17344
2017-05-20T07:17:02.374Z,17472
2017-05-20T07:18:24.638Z,19392
2017-05-20T07:19:47.119Z,19008
2017-05-20T07:21:09.288Z,18848
2017-05-20T07:22:31.804Z,36032
2017-05-20T07:23:54.093Z,22432
2017-05-20T07:25:15.619Z,15896
2017-05-20T07:26:37.799Z,18496
2017-05-20T07:28:00.824Z,18880
2017-05-20T07:29:22.361Z,16100
2017-05-20T07:30:44.565Z,18752
2017-05-20T07:32:06.894Z,22432
2017-05-20T07:33:29.027Z,30784
2017-05-20T07:34:50.545Z,26592
2017-05-20T07:36:12.075Z,26304
2017-05-20T07:37:33.648Z,25952
2017-05-20T07:38:55.899Z,25152
2017-05-20T07:40:18.082Z,22528
2017-05-20T07:41:39.798Z,20864
2017-05-20T07:43:02.040Z,17568
2017-05-20T07:44:24.917Z,25376
2017-05-20T07:45:47.440Z,25152
2017-05-20T07:47:09.168Z,25728
2017-05-20T07:48:31.339Z,17440
2017-05-20T07:49:53.816Z,13364
2017-05-20T07:51:15.024Z,30016
2017-05-20T07:52:37.505Z,26848
2017-05-20T07:53:59.659Z,15244
2017-05-20T07:55:21.909Z,24992
2017-05-20T07:56:44.073Z,29056
2017-05-20T07:58:05.750Z,36480
2017-05-20T07:59:27.620Z,29984
2017-05-20T08:00:50.389Z,23072
2017-05-20T08:02:12.870Z,27200
2017-05-20T08:03:34.749Z,28384
2017-05-20T08:04:57.249Z,28704
2017-05-20T08:06:19.349Z,24192
2017-05-20T08:07:41.513Z,20608
2017-05-20T08:09:03.698Z,18752
2017-05-20T08:10:25.229Z,23232
2017-05-20T08:11:47.386Z,26112
2017-05-20T08:13:09.566Z,24064
2017-05-20T08:14:31.122Z,23680
2017-05-20T08:15:53.288Z,20992
2017-05-20T08:17:16.119Z,21152
2017-05-20T08:18:37.666Z,23744
2017-05-20T08:19:59.948Z,23648
2017-05-20T08:21:21.489Z,19680
2017-05-20T08:22:43.967Z,16664
2017-05-20T08:24:06.523Z,16480
2017-05-20T08:25:28.065Z,16104
2017-05-20T08:26:49.979Z,17056
2017-05-20T08:28:12.088Z,20096
2017-05-20T08:29:33.921Z,15612
2017-05-20T08:30:55.926Z,13848
2017-05-20T08:32:18.080Z,14452
2017-05-20T08:33:40.227Z,14300
2017-05-20T08:35:02.455Z,13976
2017-05-20T08:36:24.029Z,12960
2017-05-20T08:37:46.520Z,12312
2017-05-20T08:39:09.120Z,12024
2017-05-20T08:40:31.318Z,12632
2017-05-20T08:41:53.192Z,13748
2017-05-20T08:43:15.134Z,14344
2017-05-20T08:44:37.322Z,13492
2017-05-20T08:45:59.169Z,13948
2017-05-20T08:47:21.031Z,14764
2017-05-20T08:48:43.225Z,14216
2017-05-20T08:50:05.431Z,13212
2017-05-20T08:51:27.594Z,11692
2017-05-20T08:52:49.271Z,12372
2017-05-20T08:54:11.200Z,11744
2017-05-20T08:55:33.640Z,11068
2017-05-20T08:56:55.468Z,11652
2017-05-20T08:58:17.298Z,11584
2017-05-20T08:59:39.552Z,11768
2017-05-20T09:01:02.000Z,11824
2017-05-20T09:02:23.859Z,10664
2017-05-20T09:03:45.764Z,10000
2017-05-20T09:05:07.304Z,9692
2017-05-20T09:06:29.856Z,9800
2017-05-20T09:07:52.032Z,9872
2017-05-20T09:09:13.566Z,9972
2017-05-20T09:10:35.401Z,10128
2017-05-20T09:11:57.859Z,9800
2017-05-20T09:13:20.357Z,9640
2017-05-20T09:14:41.879Z,9856
2017-05-20T09:16:03.806Z,10240
2017-05-20T09:17:25.690Z,10652
2017-05-20T09:18:46.976Z,12080
2017-05-20T09:20:08.517Z,11324
2017-05-20T09:21:30.030Z,11928
2017-05-20T09:22:52.162Z,12284
2017-05-20T09:24:14.390Z,11536
2017-05-20T09:25:36.550Z,12740
2017-05-20T09:26:59.030Z,11420
2017-05-20T09:28:21.340Z,14092
2017-05-20T09:29:42.621Z,13232
2017-05-20T09:31:04.839Z,15256
2017-05-20T09:32:26.662Z,14356
2017-05-20T09:33:48.798Z,15100
2017-05-20T09:35:11.010Z,14072
2017-05-20T09:36:32.941Z,15228
2017-05-20T09:37:55.173Z,15420
2017-05-20T09:39:16.680Z,11488
2017-05-20T09:40:39.179Z,10188
2017-05-20T09:42:01.343Z,10600
2017-05-20T09:43:23.540Z,14904
2017-05-20T09:44:46.105Z,16560
2017-05-20T09:46:08.571Z,20288
2017-05-20T09:47:30.162Z,21472
2017-05-20T09:48:52.770Z,20128
2017-05-20T09:50:14.911Z,18944
2017-05-20T09:51:37.383Z,18464
2017-05-20T09:52:59.256Z,18240
2017-05-20T09:54:20.845Z,18784
2017-05-20T09:55:43.328Z,17376
2017-05-20T09:57:05.487Z,16668
2017-05-20T09:58:27.656Z,13744
2017-05-20T09:59:49.171Z,14680
2017-05-20T10:01:11.960Z,14680
2017-05-20T10:02:33.499Z,15392
2017-05-20T10:03:55.031Z,12624
2017-05-20T10:05:17.524Z,12584
2017-05-20T10:06:39.037Z,13212
2017-05-20T10:08:00.557Z,14520
2017-05-20T10:09:22.717Z,18432
2017-05-20T10:10:44.882Z,17248
2017-05-20T10:12:07.355Z,18400
2017-05-20T10:13:29.531Z,15300
2017-05-20T10:14:51.738Z,14984
2017-05-20T10:16:12.957Z,12944
2017-05-20T10:17:35.172Z,14564
2017-05-20T10:18:57.007Z,14748
2017-05-20T10:20:19.470Z,16064
2017-05-20T10:21:41.322Z,16768
2017-05-20T10:23:03.898Z,16736
2017-05-20T10:24:26.050Z,18016
2017-05-20T10:25:47.935Z,15044
2017-05-20T10:27:10.458Z,15272
2017-05-20T10:28:32.914Z,15608
2017-05-20T10:29:55.187Z,12944
2017-05-20T10:31:16.851Z,10888
2017-05-20T10:32:39.483Z,10052
2017-05-20T10:34:02.306Z,11860
2017-05-20T10:35:24.781Z,13576
2017-05-20T10:36:47.292Z,13324
2017-05-20T10:38:09.200Z,14124
2017-05-20T10:39:31.613Z,17344
2017-05-20T10:40:54.109Z,16124
2017-05-20T10:42:15.959Z,14332
2017-05-20T10:43:37.470Z,14204
2017-05-20T10:45:00.423Z,16736
2017-05-20T10:46:22.983Z,17824
2017-05-20T10:47:45.498Z,15540
2017-05-20T10:49:07.982Z,15108
2017-05-20T10:50:30.500Z,17088
2017-05-20T10:51:52.352Z,21120
2017-05-20T10:53:13.880Z,20608
2017-05-20T10:54:36.450Z,17728
2017-05-20T10:55:58.937Z,16292
2017-05-20T10:57:21.098Z,17664
2017-05-20T10:58:43.559Z,18720
2017-05-20T11:00:05.519Z,19744
2017-05-20T11:01:27.651Z,17888
2017-05-20T11:02:49.886Z,16736
2017-05-20T11:04:11.766Z,16960
2017-05-20T11:05:34.230Z,17920
2017-05-20T11:06:56.450Z,17152
2017-05-20T11:08:18.814Z,16768
2017-05-20T11:09:40.997Z,16480
2017-05-20T11:11:03.145Z,19360
2017-05-20T11:12:24.978Z,19616
2017-05-20T11:13:47.139Z,18464
2017-05-20T11:15:09.368Z,16172
2017-05-20T11:16:30.929Z,13348
2017-05-20T11:17:53.220Z,13368
2017-05-20T11:19:15.716Z,15184
2017-05-20T11:20:38.249Z,17952
2017-05-20T11:22:00.413Z,17024
2017-05-20T11:23:22.842Z,13208
2017-05-20T11:24:44.381Z,12472
2017-05-20T11:26:06.322Z,12216
2017-05-20T11:27:28.598Z,14128
2017-05-20T11:28:51.379Z,15728
2017-05-20T11:30:13.849Z,14820
2017-05-20T11:31:36.019Z,14348
2017-05-20T11:32:58.659Z,15380
2017-05-20T11:34:20.889Z,17408
2017-05-20T11:35:43.182Z,19040
2017-05-20T11:37:05.348Z,19136
2017-05-20T11:38:27.518Z,19680
2017-05-20T11:39:50.000Z,19168
2017-05-20T11:41:11.543Z,19840
2017-05-20T11:42:32.752Z,20224
2017-05-20T11:43:55.058Z,20352
2017-05-20T11:45:17.589Z,21504
2017-05-20T11:46:39.423Z,20224
2017-05-20T11:48:00.660Z,20576
2017-05-20T11:49:22.862Z,19616
2017-05-20T11:50:45.291Z,17888
2017-05-20T11:52:07.802Z,16768
2017-05-20T11:53:29.668Z,16196
2017-05-20T11:54:51.640Z,14480
2017-05-20T11:56:13.809Z,14624
2017-05-20T11:57:35.984Z,16160
2017-05-20T11:58:57.838Z,18240
2017-05-20T12:00:19.763Z,17536
2017-05-20T12:01:42.330Z,18720
2017-05-20T12:03:04.250Z,18496
2017-05-20T12:04:26.480Z,19264
2017-05-20T12:05:48.711Z,20256
2017-05-20T12:07:11.187Z,21536
2017-05-20T12:08:33.658Z,21920
2017-05-20T12:09:55.850Z,22240
2017-05-20T12:11:18.070Z,22208
2017-05-20T12:12:40.883Z,20096
2017-05-20T12:14:03.159Z,19392
2017-05-20T12:15:25.048Z,19104
2017-05-20T12:16:46.299Z,18464
2017-05-20T12:18:08.513Z,18400
2017-05-20T12:19:31.191Z,18976
2017-05-20T12:20:53.050Z,20320
2017-05-20T12:22:14.573Z,20864
2017-05-20T12:23:36.725Z,21152
2017-05-20T12:24:58.654Z,21440
2017-05-20T12:26:20.839Z,22720
2017-05-20T12:27:43.328Z,23872
2017-05-20T12:29:05.531Z,24544
2017-05-20T12:30:27.462Z,24768
2017-05-20T12:31:49.618Z,25088
2017-05-20T12:33:11.519Z,24864
2017-05-20T12:34:33.739Z,24640
2017-05-20T12:35:55.918Z,24192
2017-05-20T12:37:17.926Z,24096
2017-05-20T12:38:39.809Z,24928
2017-05-20T12:40:02.250Z,25184
2017-05-20T12:41:23.879Z,23808
2017-05-20T12:42:46.483Z,19744
2017-05-20T12:44:08.370Z,16576
2017-05-20T12:45:30.527Z,13920
2017-05-20T12:46:52.998Z,12536
2017-05-20T12:48:14.872Z,11448
2017-05-20T12:49:37.062Z,11552
2017-05-20T12:50:59.492Z,11720
2017-05-20T12:52:21.369Z,12404
2017-05-20T12:53:43.220Z,13908
2017-05-20T12:55:05.396Z,15080
2017-05-20T12:56:27.924Z,14488
2017-05-20T12:57:50.534Z,15192
2017-05-20T12:59:12.816Z,15168
2017-05-20T13:00:34.682Z,14184
2017-05-20T13:01:57.416Z,14440
2017-05-20T13:03:19.380Z,15200
2017-05-20T13:04:41.618Z,16096
2017-05-20T13:06:03.490Z,15644
2017-05-20T13:07:25.602Z,15672
2017-05-20T13:08:47.778Z,16800
2017-05-20T13:10:09.620Z,15776
2017-05-20T13:11:31.151Z,14360
2017-05-20T13:12:53.900Z,14252
2017-05-20T13:14:16.098Z,17440
2017-05-20T13:15:38.692Z,19136
2017-05-20T13:17:00.728Z,18208
2017-05-20T13:18:22.872Z,18176
2017-05-20T13:19:45.112Z,18976
2017-05-20T13:21:07.655Z,18688
2017-05-20T13:22:30.151Z,18432
2017-05-20T13:23:52.823Z,18880
2017-05-20T13:25:15.102Z,17472
2017-05-20T13:26:37.378Z,15536
2017-05-20T13:27:58.918Z,14368
2017-05-20T13:29:21.649Z,14404
2017-05-20T13:30:43.828Z,14516
2017-05-20T13:32:06.003Z,13388
2017-05-20T13:33:27.946Z,12852
2017-05-20T13:34:50.479Z,12560
2017-05-20T13:36:12.371Z,11764
2017-05-20T13:37:34.220Z,11588
2017-05-20T13:38:56.446Z,10752
2017-05-20T13:40:18.694Z,10588
2017-05-20T13:41:40.549Z,11492
2017-05-20T13:43:02.433Z,12152
2017-05-20T13:44:24.608Z,13492
2017-05-20T13:45:47.209Z,12568
2017-05-20T13:47:09.932Z,11268
2017-05-20T13:48:32.127Z,9976
2017-05-20T13:49:53.787Z,9384
2017-05-20T13:51:15.700Z,9160
2017-05-20T13:52:37.878Z,8948
2017-05-20T13:53:59.442Z,12336
2017-05-20T13:55:21.591Z,12352
2017-05-20T13:56:44.408Z,10028
2017-05-20T13:58:07.006Z,8944
2017-05-20T13:59:29.180Z,8556
2017-05-20T14:00:51.379Z,9016
2017-05-20T14:02:13.901Z,10376
2017-05-20T14:03:36.387Z,13176
2017-05-20T14:04:58.273Z,14600
2017-05-20T14:06:20.170Z,13808
2017-05-20T14:07:42.316Z,11728
2017-05-20T14:09:04.638Z,10172
2017-05-20T14:10:26.854Z,10348
2017-05-20T14:11:49.030Z,9852
2017-05-20T14:13:11.856Z,9596
2017-05-20T14:14:34.026Z,10032
2017-05-20T14:15:55.877Z,10900
2017-05-20T14:17:18.359Z,10732
2017-05-20T14:18:41.198Z,11508
2017-05-20T14:20:03.398Z,12904
2017-05-20T14:21:25.261Z,13144
2017-05-20T14:22:47.137Z,12880
2017-05-20T14:24:09.619Z,12920
2017-05-20T14:25:31.798Z,11088
2017-05-20T14:26:53.639Z,9392
2017-05-20T14:28:15.810Z,8748
2017-05-20T14:29:38.707Z,8356
2017-05-20T14:31:00.360Z,8812
2017-05-20T14:32:22.277Z,8892
2017-05-20T14:33:44.179Z,8764
2017-05-20T14:35:06.778Z,8456
2017-05-20T14:36:28.782Z,8440
2017-05-20T14:37:50.030Z,8976
2017-05-20T14:39:12.220Z,9492
2017-05-20T14:40:34.678Z,10436
2017-05-20T14:41:56.530Z,10376
2017-05-20T14:43:18.371Z,9776
2017-05-20T14:44:40.421Z,8976
2017-05-20T14:46:02.896Z,8584
2017-05-20T14:47:24.630Z,8672
2017-05-20T14:48:47.189Z,8744
2017-05-20T14:50:09.043Z,8876
2017-05-20T14:51:30.889Z,8784
2017-05-20T14:52:53.151Z,8624
2017-05-20T14:54:15.739Z,8456
2017-05-20T14:55:37.898Z,8200
2017-05-20T14:56:59.810Z,8040
2017-05-20T14:58:22.303Z,7956
2017-05-20T14:59:44.801Z,7872
2017-05-20T15:01:07.338Z,7512
2017-05-20T15:02:29.902Z,7364
2017-05-20T15:03:52.413Z,7244
2017-05-20T15:05:14.261Z,6944
2017-05-20T15:06:35.478Z,6708
2017-05-20T15:07:57.651Z,6696
2017-05-20T15:09:20.159Z,6760
2017-05-20T15:10:42.478Z,6856
2017-05-20T15:12:04.026Z,6944
2017-05-20T15:13:26.539Z,7088
2017-05-20T15:14:48.849Z,7216
2017-05-20T15:16:11.058Z,7316
2017-05-20T15:17:33.208Z,7432
2017-05-20T15:18:55.551Z,7428
2017-05-20T15:20:17.848Z,7312
2017-05-20T15:21:39.999Z,7252
2017-05-20T15:23:01.859Z,7248
2017-05-20T15:24:24.079Z,7376
2017-05-20T15:25:46.577Z,7548
2017-05-20T15:27:08.175Z,8072
2017-05-20T15:28:30.747Z,8852
2017-05-20T15:29:53.567Z,10292
2017-05-20T15:31:15.462Z,11472
2017-05-20T15:32:37.285Z,12300
2017-05-20T15:33:59.425Z,12448
2017-05-20T15:35:21.842Z,12248
2017-05-20T15:36:43.694Z,11228
2017-05-20T15:38:06.169Z,10568
2017-05-20T15:39:28.383Z,10084
2017-05-20T15:40:50.898Z,9568
2017-05-20T15:42:13.047Z,9160
2017-05-20T15:43:34.286Z,8784
2017-05-20T15:44:56.137Z,9004
2017-05-20T15:46:18.661Z,8712
2017-05-20T15:47:40.568Z,9068
2017-05-20T15:49:02.734Z,9712
2017-05-20T15:50:24.588Z,10196
2017-05-20T15:51:46.419Z,9996
2017-05-20T15:53:08.287Z,9756
2017-05-20T15:54:30.524Z,9240
2017-05-20T15:55:52.358Z,8884
2017-05-20T15:57:14.866Z,8356
2017-05-20T15:58:36.717Z,7752
2017-05-20T15:59:58.979Z,7284
2017-05-20T16:01:20.915Z,6684
2017-05-20T16:02:43.131Z,6368
2017-05-20T16:04:05.396Z,6116
2017-05-20T16:05:27.953Z,6336
2017-05-20T16:06:49.835Z,6420
2017-05-20T16:08:12.316Z,6312
2017-05-20T16:09:33.977Z,6160
2017-05-20T16:10:55.520Z,6184
2017-05-20T16:12:18.014Z,6652
2017-05-20T16:13:40.507Z,6632
2017-05-20T16:15:02.667Z,6980
2017-05-20T16:16:24.679Z,7536
2017-05-20T16:17:46.273Z,7676
2017-05-20T16:19:08.788Z,7380
2017-05-20T16:20:30.661Z,6884
2017-05-20T16:21:52.871Z,6700
2017-05-20T16:23:15.129Z,6516
2017-05-20T16:24:37.901Z,6648
2017-05-20T16:26:00.408Z,7080
2017-05-20T16:27:22.265Z,6804
2017-05-20T16:28:44.744Z,6328
2017-05-20T16:30:07.553Z,5884
2017-05-20T16:31:29.946Z,5472
2017-05-20T16:32:52.188Z,5240
2017-05-20T16:34:14.376Z,5184
2017-05-20T16:35:36.559Z,5336
2017-05-20T16:36:59.058Z,5964
2017-05-20T16:38:21.282Z,6912
2017-05-20T16:39:43.230Z,8804
2017-05-20T16:41:06.089Z,9836
2017-05-20T16:42:28.577Z,9812
2017-05-20T16:43:51.183Z,9460
2017-05-20T16:45:12.712Z,8768
2017-05-20T16:46:35.238Z,8248
2017-05-20T16:47:58.825Z,7960
2017-05-20T16:49:21.319Z,7680
2017-05-20T16:50:43.094Z,7504
2017-05-20T16:52:04.613Z,7392
2017-05-20T16:53:26.767Z,7288
2017-05-20T16:54:48.731Z,7160
2017-05-20T16:56:10.901Z,6972
2017-05-20T16:57:33.396Z,6844
2017-05-20T16:58:55.258Z,6780
2017-05-20T17:00:17.756Z,6800
2017-05-20T17:01:40.399Z,6784
2017-05-20T17:03:03.348Z,6864
2017-05-20T17:04:26.124Z,7140
2017-05-20T17:05:48.759Z,7316
2017-05-20T17:07:10.984Z,7360
2017-05-20T17:08:33.739Z,7132
2017-05-20T17:09:56.299Z,6868
2017-05-20T17:11:18.172Z,6820
2017-05-20T17:12:42.858Z,6648
2017-05-20T17:14:05.660Z,6412
2017-05-20T17:15:27.999Z,6224
2017-05-20T17:16:49.991Z,6084
2017-05-20T17:18:12.281Z,5956
2017-05-20T17:19:35.152Z,5848
2017-05-20T17:20:57.638Z,5796
2017-05-20T17:22:19.602Z,5768
2017-05-20T17:23:42.119Z,5756
2017-05-20T17:25:04.642Z,5728
2017-05-20T17:26:26.501Z,5672
2017-05-20T17:27:49.107Z,5636
2017-05-20T17:29:11.331Z,5676
2017-05-20T17:30:33.867Z,5704
2017-05-20T17:31:56.057Z,5596
2017-05-20T17:33:18.356Z,5468
2017-05-20T17:34:40.517Z,5352
2017-05-20T17:36:03.387Z,5236
2017-05-20T17:37:25.232Z,5140
2017-05-20T17:38:47.389Z,5032
2017-05-20T17:40:09.247Z,4952
2017-05-20T17:41:31.397Z,4892
2017-05-20T17:42:53.250Z,4856
2017-05-20T17:44:15.127Z,4816
2017-05-20T17:45:37.695Z,4780
2017-05-20T17:46:59.919Z,4736
2017-05-20T17:48:22.110Z,4680
2017-05-20T17:49:44.628Z,4616
2017-05-20T17:51:06.471Z,4560
2017-05-20T17:52:29.058Z,4516
2017-05-20T17:53:51.560Z,4464
2017-05-20T17:55:13.408Z,4408
2017-05-20T17:56:35.418Z,4352
2017-05-20T17:57:58.218Z,4288
2017-05-20T17:59:20.710Z,4224
2017-05-20T18:00:43.205Z,4156
2017-05-20T18:02:05.022Z,4104
2017-05-20T18:03:27.279Z,4056
2017-05-20T18:04:49.827Z,4000
2017-05-20T18:06:12.305Z,3940
2017-05-20T18:07:34.916Z,3876
2017-05-20T18:08:56.776Z,3824
2017-05-20T18:10:18.618Z,3776
2017-05-20T18:11:40.523Z,3724
2017-05-20T18:13:02.713Z,3680
2017-05-20T18:14:25.338Z,3632
2017-05-20T18:15:47.961Z,3580
2017-05-20T18:17:10.164Z,3532